AirNav   Air Wisconsin Up To $57,000 Bonus
 
 535 users online  

0R1 Atmore Municipal Airport
Atmore, Alabama, USA

GOING TO ATMORE?


FAA INFORMATION EFFECTIVE 03 DECEMBER 2020

Location

FAA Identifier: 0R1
Lat/Long: 31-00-58.1000N 087-26-48.3000W
31-00.968333N 087-26.805000W
31.0161389,-87.4467500
(estimated)
Elevation: 286 ft. / 87.2 m (surveyed)
Variation: 03W (2020)
From city: 3 miles E of ATMORE, AL
Time zone: UTC -6 (UTC -5 during Daylight Saving Time)
Zip code: 36502

Airport Operations

Airport use: Open to the public
Activation date: 10/1961
Control tower: no
ARTCC: JACKSONVILLE CENTER
FSS: ANNISTON FLIGHT SERVICE STATION
NOTAMs facility: ANB (NOTAM-D service available)
Attendance: MON-FRI 0700-1700
WKENDS ON CALL.
Wind indicator: lighted
Segmented circle: yes
Lights: ACTVT PAPI RWYS 18 & 36; MIRL RWY 18/36 - CTAF.
Beacon: white-green (lighted land airport)
Operates sunset to sunrise.

Airport Communications

CTAF/UNICOM: 122.8
PENSACOLA APPROACH: 127.35
PENSACOLA DEPARTURE: 127.35
WX AWOS-3PT at 12J (20 nm E): 119.325 (251-809-2987)

Nearby radio navigation aids

VOR radial/distance  VOR name  Freq  Var
MVCr186/27.0MONROEVILLE VORTAC116.8004E
NUNr349/(33.1)SAUFLEY VOR108.8001E
BFMr048/39.6BROOKLEY VORTAC112.8004E

 
NDB name  Hdg/Dist  Freq  Var  ID
PICKENS340/37.432602WPKZ .--. -.- --..

Airport Services

Fuel available: 100LL
Parking: tiedowns
Airframe service: MAJOR
Powerplant service: MAJOR
Bottled oxygen: NONE
Bulk oxygen: NONE

Runway Information

Runway 18/36

Dimensions: 5001 x 80 ft. / 1524 x 24 m
Surface: asphalt, in good condition
Weight bearing capacity: 
Single wheel: 16.0
Runway edge lights: medium intensity
RUNWAY 18  RUNWAY 36
Latitude: 31-01.381432N31-00.556477N
Longitude: 087-26.806668W087-26.803960W
Elevation: 283.2 ft.279.9 ft.
Traffic pattern: leftleft
Runway heading: 183 magnetic, 180 true003 magnetic, 360 true
Markings: nonprecision, in fair conditionnonprecision, in fair condition
Visual slope indicator: 2-light PAPI on left (3.00 degrees glide path)2-light PAPI on left (3.00 degrees glide path)
Touchdown point: yes, no lightsyes, no lights
Obstructions: 35 ft. rr, 906 ft. from runway, 20:1 slope to clear
APCH RATIO 33:1 TO DSPLCD THR.
50 ft. pline, 1424 ft. from runway, 24:1 slope to clear
APCH RATIO 32:1 TO DSPLCD THR.

Airport Ownership and Management from official FAA records

Ownership: Publicly-owned
Owner: TOWN OF ATMORE
PO DRAWER 1297
ATMORE, AL 36504
Phone 251-368-2253
Manager: FREDDIE MCCALL
15 BEACON LN
ATMORE, AL 36502
Phone 251-368-2004
ALSO 251-655-0971

Airport Operational Statistics

Aircraft based on the field: 17
Single engine airplanes: 15
Helicopters: 1
Gliders airplanes: 1
    
Aircraft operations: avg 74/week *
78% transient general aviation
22% local general aviation
* for 12-month period ending 31 July 2020

Additional Remarks

FOR CD CTC PENSACOLA APCH AT 850-266-6884 OR 850-266-6885.

Instrument Procedures

NOTE: All procedures below are presented as PDF files. If you need a reader for these files, you should download the free Adobe Reader.

NOT FOR NAVIGATION. Please procure official charts for flight.
FAA instrument procedures published for use from 03 December 2020 at 0901Z to 31 December 2020 at 0900Z.

 
IAPs - Instrument Approach Procedures
RNAV (GPS) RWY 18   download (193KB)
RNAV (GPS) RWY 36   download (200KB)
NOTE: Special Take-Off Minimums/Departure Procedures apply   download (317KB)

Other nearby airports with instrument procedures:

12J - Brewton Municipal Airport (20 nm E)
1R8 - Bay Minette Municipal Airport (21 nm SW)
KMVC - Monroe County Aeroplex Airport (27 nm N)
KNSE - Whiting Field Naval Air Station North (28 nm SE)
KNDZ - Whiting Field Naval Air Station South (29 nm SE)
 
Loc | Ops | Rwys | IFR | FBO | Links
Com | Nav | Svcs | Stats | Notes

Continental Services
AirBoss

 
Area around 0R1 (Atmore Municipal Airport)
 
Road maps at: MapQuest Bing Google
 
Aerial photo
No photo
 
Sectional chart

 
Airport distance calculator
Flying to Atmore Municipal Airport? Find the distance to fly.

From to 0R1

Sunrise and sunset
Times for 05-Dec-2020
 Local
(UTC-6)
 Zulu
(UTC)
Morning civil twilight06:0912:09
Sunrise06:3512:35
Sunset16:4622:46
Evening civil twilight17:1323:13

Current date and time
Zulu (UTC)  05-Dec-2020 06:43:47
Local (UTC-6)  05-Dec-2020 00:43:47
 
METAR
KNSE 
29nm SE 
050556Z AUTO 00000KT 9SM CLR 03/03 A3017 RMK AO2 SLP206 6//// T00330028 10100 20033 401830033 58002 PNO $
KNDZ 
29nm SE 
050556Z AUTO 32004KT 7SM CLR 04/03 A3018 RMK AO2 SLP206 6//// T00390028 10106 20039 402060039 58001 PNO $
KGZH 
31nm NE 
050553Z AUTO 20003KT 4SM BR CLR 02/00 A3019 RMK AO2 SLP224 T00170000 10089 20017 401500017 53003
KPNS 
35nm SE 
050553Z AUTO 32003KT 10SM CLR 06/05 A3018 RMK AO2 SLP221 T00610050 10111 20061 402110061 50001
KBFM 
40nm SW 
050553Z AUTO 33005KT 10SM CLR 06/04 A3022 RMK AO2 SLP233 T00560039 10100 20050 401780050 51007
KCQF 
40nm SW 
050615Z AUTO 00000KT 5SM BR CLR 03/03 A3020 RMK AO2
KNPA 
41nm S 
050556Z AUTO 33003KT 10SM CLR 07/04 A3018 RMK AO2 SLP221 6//// T00670044 10117 20061 402220061 50003 PNO $
KMOB 
46nm SW 
050556Z AUTO 33004KT 10SM CLR 04/04 A3021 RMK AO2 SLP228 T00390039 10083 20028 402060028 51005
TAF
KNSE 
29nm SE 
0423/0523 33010KT 9999 BKN008 OVC015 QNH3006INS TEMPO 0500/0502 SCT008 SCT015 BKN025 FM050300 34008KT 9999 FEW025 FEW060 QNH3008INS FM051200 36006KT 9999 FEW250 QNH3014INS AUTOMATED SENSOR METWATCH 0505 TIL 0711 T04/0512Z T16/0519Z FN20031
KPNS 
35nm SE 
050520Z 0506/0606 36006KT P6SM SCT250
NOTAMs
Click for the latest NOTAMs
NOTAMs are issued by the DoD/FAA and will open in a separate window not controlled by AirNav.

 

 
 

FBO, Fuel Providers, and Aircraft Ground Support

  
 Business Name 
 
 Contact 
 
 Services / Description 
 
Fuel Prices
 
Comments
  
Aviation Specialists LLC 251-368-2004
no information available

If you are affiliated with Aviation Specialists LLC and would like to show here your services, contact info, web link, logo, and more, click here
100LL
SS $3.30 
 Updated 24-Nov-2020
 
   2 read write
SS=Self service
Update Fuel Prices
 

Would you like to see your business listed on this page?

 If your business provides an interesting product or service to pilots, flight crews, aircraft, or users of the Atmore Municipal Airport, you should consider listing it here.  To start the listing process, click on the button below
 
Add a business
 

Other Pages about Atmore Municipal Airport

Update a link
 
Copyright © AirNav, LLC. All rights reserved. Privacy Policy  Contact